createdAt,value
2022-08-22T00:00:27.855Z,99192.22
2022-08-22T00:02:48.149Z,99191.69
2022-08-22T00:02:48.340Z,99181.25
2022-08-22T00:02:52.803Z,99178.03
2022-08-22T00:02:55.135Z,99183.03
2022-08-22T00:03:09.861Z,99175.59
2022-08-22T00:03:11.262Z,99200.97
2022-08-22T00:03:23.775Z,99192.66
2022-08-22T00:06:01.134Z,99192.50
2022-08-22T00:09:00.464Z,99190.31
2022-08-22T00:11:45.807Z,99195.66
2022-08-22T00:14:33.156Z,99191.69
2022-08-22T00:17:04.661Z,99188.00
2022-08-22T00:19:51.583Z,99185.78
2022-08-22T00:22:32.633Z,99179.28
2022-08-22T00:25:25.922Z,99178.31
2022-08-22T00:28:07.413Z,99185.56
2022-08-22T00:31:17.769Z,99187.84
2022-08-22T00:33:53.524Z,99194.81
2022-08-22T00:36:39.522Z,99181.66
2022-08-22T00:39:19.244Z,99186.19
2022-08-22T00:42:15.148Z,99188.28
2022-08-22T00:45:30.768Z,99186.25
2022-08-22T00:48:29.739Z,99180.56
2022-08-22T00:51:39.602Z,99177.94
2022-08-22T00:54:50.230Z,99183.75
2022-08-22T00:57:24.717Z,99178.81
2022-08-22T01:00:04.929Z,99183.75
2022-08-22T01:02:59.808Z,99175.13
2022-08-22T01:05:49.837Z,99176.59
2022-08-22T01:08:57.396Z,99185.44
2022-08-22T01:12:11.885Z,99171.69
2022-08-22T01:14:46.406Z,99174.97
2022-08-22T01:17:21.113Z,99166.72
2022-08-22T01:20:37.432Z,99171.41
2022-08-22T01:23:14.661Z,99168.94
2022-08-22T01:26:04.705Z,99182.69
2022-08-22T01:28:59.926Z,99174.91
2022-08-22T01:31:50.528Z,99177.78
2022-08-22T01:34:42.614Z,99171.41
2022-08-22T01:37:19.825Z,99171.84
2022-08-22T01:40:03.334Z,99170.81
2022-08-22T01:42:42.688Z,99169.78
2022-08-22T01:45:14.196Z,99167.31
2022-08-22T01:48:13.278Z,99165.25
2022-08-22T01:50:54.779Z,99158.63
2022-08-22T01:53:41.150Z,99162.34
2022-08-22T01:56:17.907Z,99157.44
2022-08-22T01:59:01.967Z,99155.81
2022-08-22T02:01:49.558Z,99164.06
2022-08-22T02:04:36.101Z,99155.50
2022-08-22T02:07:07.689Z,99162.09
2022-08-22T02:10:06.331Z,99169.06
2022-08-22T02:12:41.504Z,99155.72
2022-08-22T02:15:45.578Z,99162.28
2022-08-22T02:18:24.964Z,99152.16
2022-08-22T02:21:16.446Z,99156.09
2022-08-22T02:24:04.174Z,99156.75
2022-08-22T02:27:04.334Z,99159.19
2022-08-22T02:29:44.660Z,99159.19
2022-08-22T02:32:33.292Z,99156.38
2022-08-22T02:35:10.386Z,99152.66
2022-08-22T02:38:06.616Z,99158.63
2022-08-22T02:40:46.085Z,99158.69
2022-08-22T02:43:25.464Z,99159.09
2022-08-22T02:46:14.565Z,99153.75
2022-08-22T02:49:11.951Z,99160.75
2022-08-22T02:51:57.881Z,99154.44
2022-08-22T02:54:38.258Z,99159.78
2022-08-22T02:57:39.563Z,99152.84
2022-08-22T03:00:32.428Z,99150.59
2022-08-22T03:03:21.884Z,99144.00
2022-08-22T03:06:01.816Z,99153.09
2022-08-22T03:08:51.026Z,99156.78
2022-08-22T03:11:35.651Z,99146.28
2022-08-22T03:14:28.713Z,99148.53
2022-08-22T03:17:14.438Z,99150.56
2022-08-22T03:20:05.518Z,99150.78
2022-08-22T03:22:45.489Z,99153.88
2022-08-22T03:25:33.771Z,99149.78
2022-08-22T03:28:14.425Z,99151.00
2022-08-22T03:31:12.941Z,99146.25
2022-08-22T03:33:46.101Z,99145.84
2022-08-22T03:36:17.638Z,99148.78
2022-08-22T03:39:00.764Z,99149.97
2022-08-22T03:41:59.417Z,99147.31
2022-08-22T03:44:45.620Z,99147.75
2022-08-22T03:47:43.145Z,99154.19
2022-08-22T03:50:43.724Z,99155.38
2022-08-22T03:53:40.454Z,99157.03
2022-08-22T03:56:24.108Z,99160.72
2022-08-22T03:59:16.397Z,99161.53
2022-08-22T04:02:24.733Z,99166.47
2022-08-22T04:05:28.086Z,99156.59
2022-08-22T04:08:49.057Z,99165.63
2022-08-22T04:12:03.950Z,99163.56
2022-08-22T04:14:59.817Z,99165.41
2022-08-22T04:18:01.775Z,99169.72
2022-08-22T04:21:14.379Z,99169.34
2022-08-22T04:24:11.838Z,99174.22
2022-08-22T04:27:02.189Z,99175.66
2022-08-22T04:30:03.951Z,99178.97
2022-08-22T04:32:45.497Z,99186.75
2022-08-22T04:35:32.730Z,99188.59
2022-08-22T04:38:36.113Z,99190.63
2022-08-22T04:41:20.762Z,99185.00
2022-08-22T04:44:02.275Z,99186.34
2022-08-22T04:46:40.997Z,99188.31
2022-08-22T04:49:37.067Z,99186.13
2022-08-22T04:52:43.450Z,99191.81
2022-08-22T04:55:45.380Z,99188.47
2022-08-22T04:58:29.417Z,99197.22
2022-08-22T05:01:10.874Z,99192.53
2022-08-22T05:04:08.408Z,99198.84
2022-08-22T05:06:48.097Z,99196.66
2022-08-22T05:09:27.492Z,99188.22
2022-08-22T05:12:07.276Z,99203.75
2022-08-22T05:14:57.234Z,99202.97
2022-08-22T05:17:32.113Z,99199.47
2022-08-22T05:20:09.541Z,99199.47
2022-08-22T05:22:47.183Z,99194.13
2022-08-22T05:25:24.849Z,99198.31
2022-08-22T05:28:12.076Z,99192.72
2022-08-22T05:30:50.873Z,99194.38
2022-08-22T05:33:30.070Z,99200.59
2022-08-22T05:36:10.435Z,99203.19
2022-08-22T05:38:51.218Z,99190.94
2022-08-22T05:41:30.916Z,99195.16
2022-08-22T05:44:03.388Z,99196.19
2022-08-22T05:46:34.898Z,99192.25
2022-08-22T05:49:39.446Z,99197.94
2022-08-22T05:52:36.716Z,99199.69
2022-08-22T05:55:23.064Z,99205.66
2022-08-22T05:58:30.233Z,99203.66
2022-08-22T06:01:16.690Z,99213.56
2022-08-22T06:04:25.824Z,99209.72
2022-08-22T06:07:06.201Z,99202.72
2022-08-22T06:10:00.646Z,99202.84
2022-08-22T06:12:43.286Z,99206.34
2022-08-22T06:15:23.123Z,99208.56
2022-08-22T06:18:00.586Z,99201.91
2022-08-22T06:20:55.679Z,99206.00
2022-08-22T06:23:35.087Z,99207.03
2022-08-22T06:26:21.105Z,99211.47
2022-08-22T06:28:59.426Z,99208.44
2022-08-22T06:31:46.693Z,99207.66
2022-08-22T06:34:26.872Z,99207.41
2022-08-22T06:37:04.413Z,99216.97
2022-08-22T06:39:41.410Z,99215.09
2022-08-22T06:42:16.466Z,99214.63
2022-08-22T06:45:08.569Z,99222.78
2022-08-22T06:47:49.908Z,99219.78
2022-08-22T06:50:32.207Z,99221.28
2022-08-22T06:53:24.692Z,99222.09
2022-08-22T06:56:03.004Z,99226.44
2022-08-22T06:58:43.284Z,99228.88
2022-08-22T07:01:21.216Z,99228.63
2022-08-22T07:03:58.514Z,99232.72
2022-08-22T07:06:35.011Z,99232.38
2022-08-22T07:09:25.368Z,99228.03
2022-08-22T07:12:04.987Z,99227.78
2022-08-22T07:14:43.218Z,99226.75
2022-08-22T07:17:27.095Z,99221.75
2022-08-22T07:20:21.500Z,99230.53
2022-08-22T07:23:12.302Z,99222.22
2022-08-22T07:26:09.600Z,99221.06
2022-08-22T07:28:51.280Z,99228.78
2022-08-22T07:31:58.412Z,99230.47
2022-08-22T07:34:38.110Z,99221.75
2022-08-22T07:37:43.900Z,99223.38
2022-08-22T07:40:33.673Z,99227.09
2022-08-22T07:43:22.954Z,99228.94
2022-08-22T07:46:29.104Z,99223.88
2022-08-22T07:49:10.128Z,99230.69
2022-08-22T07:51:46.388Z,99228.72
2022-08-22T07:54:35.207Z,99223.91
2022-08-22T07:57:12.630Z,99221.34
2022-08-22T07:59:51.068Z,99229.13
2022-08-22T08:02:24.599Z,99223.28
2022-08-22T08:05:00.451Z,99229.03
2022-08-22T08:07:32.671Z,99228.56
2022-08-22T08:10:13.061Z,99224.34
2022-08-22T08:13:02.010Z,99231.47
2022-08-22T08:15:39.661Z,99229.94
2022-08-22T08:18:19.349Z,99219.66
2022-08-22T08:20:54.607Z,99235.19
2022-08-22T08:23:31.467Z,99237.88
2022-08-22T08:26:16.342Z,99228.13
2022-08-22T08:28:54.417Z,99225.41
2022-08-22T08:31:43.386Z,99239.53
2022-08-22T08:34:23.627Z,99241.53
2022-08-22T08:37:01.312Z,99233.63
2022-08-22T08:39:51.450Z,99238.06
2022-08-22T08:42:54.536Z,99232.41
2022-08-22T08:45:35.165Z,99239.75
2022-08-22T08:48:27.328Z,99238.38
2022-08-22T08:51:25.353Z,99236.53
2022-08-22T08:54:24.928Z,99233.50
2022-08-22T08:57:21.716Z,99231.75
2022-08-22T09:00:07.019Z,99234.78
2022-08-22T09:02:51.277Z,99236.28
2022-08-22T09:05:50.411Z,99234.44
2022-08-22T09:09:01.216Z,99226.97
2022-08-22T09:11:54.700Z,99239.47
2022-08-22T09:14:32.475Z,99245.50
2022-08-22T09:17:09.001Z,99237.13
2022-08-22T09:20:17.985Z,99244.03
2022-08-22T09:23:20.422Z,99241.59
2022-08-22T09:26:05.958Z,99241.81
2022-08-22T09:28:53.584Z,99244.72
2022-08-22T09:31:48.260Z,99248.81
2022-08-22T09:34:41.087Z,99243.94
2022-08-22T09:37:24.486Z,99241.00
2022-08-22T09:43:07.066Z,99241.34
2022-08-22T09:45:53.564Z,99246.94
2022-08-22T09:48:31.615Z,99248.91
2022-08-22T09:51:38.797Z,99255.56
2022-08-22T09:54:10.416Z,99254.25
2022-08-22T09:56:58.549Z,99255.59
2022-08-22T09:59:44.853Z,99265.63
2022-08-22T10:02:45.243Z,99255.00
2022-08-22T10:05:44.109Z,99259.06
2022-08-22T10:08:50.830Z,99253.00
2022-08-22T10:11:28.718Z,99264.31
2022-08-22T10:14:22.106Z,99258.94
2022-08-22T10:17:11.870Z,99271.53
2022-08-22T10:20:02.016Z,99267.13
2022-08-22T10:23:04.543Z,99280.75
2022-08-22T10:25:41.850Z,99272.25
2022-08-22T10:28:19.816Z,99275.63
2022-08-22T10:31:08.778Z,99280.09
2022-08-22T10:33:57.747Z,99274.25
2022-08-22T10:36:38.954Z,99270.59
2022-08-22T10:39:20.284Z,99264.41
2022-08-22T10:42:00.211Z,99275.03
2022-08-22T10:44:43.848Z,99274.19
2022-08-22T10:47:24.202Z,99275.41
2022-08-22T10:50:20.239Z,99275.03
2022-08-22T10:53:18.779Z,99270.97
2022-08-22T10:56:15.901Z,99269.00
2022-08-22T10:59:05.761Z,99268.50
2022-08-22T11:01:53.362Z,99272.94
2022-08-22T11:04:39.944Z,99269.66
2022-08-22T11:07:38.182Z,99266.66
2022-08-22T11:10:34.921Z,99271.91
2022-08-22T11:13:34.471Z,99266.16
2022-08-22T11:16:15.776Z,99263.38
2022-08-22T11:19:15.872Z,99260.97
2022-08-22T11:22:14.418Z,99265.03
2022-08-22T11:25:38.519Z,99260.34
2022-08-22T11:29:02.753Z,99260.03
2022-08-22T11:32:05.977Z,99268.44
2022-08-22T11:35:09.350Z,99265.03
2022-08-22T11:37:59.464Z,99258.84
2022-08-22T11:40:42.568Z,99262.56
2022-08-22T11:43:39.178Z,99267.50
2022-08-22T11:46:36.851Z,99257.34
2022-08-22T11:49:27.101Z,99262.34
2022-08-22T11:52:08.521Z,99255.56
2022-08-22T11:54:46.359Z,99261.72
2022-08-22T11:57:32.272Z,99270.44
2022-08-22T12:00:32.715Z,99269.41
2022-08-22T12:03:34.015Z,99278.38
2022-08-22T12:06:25.494Z,99269.41
2022-08-22T12:09:36.020Z,99268.16
2022-08-22T12:12:24.382Z,99282.13
2022-08-22T12:15:08.914Z,99265.47
2022-08-22T12:18:22.435Z,99275.94
2022-08-22T12:21:41.732Z,99282.88
2022-08-22T12:24:41.104Z,99264.91
2022-08-22T12:27:28.459Z,99274.50
2022-08-22T12:30:24.557Z,99260.38
2022-08-22T12:33:25.017Z,99266.75
2022-08-22T12:36:20.155Z,99264.56
2022-08-22T12:39:37.494Z,99266.31
2022-08-22T12:42:35.468Z,99265.22
2022-08-22T12:45:26.644Z,99271.78
2022-08-22T12:48:09.776Z,99254.75
2022-08-22T12:50:55.708Z,99252.41
2022-08-22T12:53:49.132Z,99254.06
2022-08-22T12:56:47.548Z,99246.47
2022-08-22T12:59:28.121Z,99261.63
2022-08-22T13:02:03.012Z,99265.81
2022-08-22T13:04:42.236Z,99259.28
2022-08-22T13:07:34.787Z,99263.59
2022-08-22T13:10:17.475Z,99268.13
2022-08-22T13:12:59.054Z,99264.88
2022-08-22T13:15:39.325Z,99269.63
2022-08-22T13:18:30.361Z,99264.97
2022-08-22T13:21:05.569Z,99257.53
2022-08-22T13:23:46.978Z,99261.97
2022-08-22T13:26:33.587Z,99267.88
2022-08-22T13:29:25.816Z,99263.00
2022-08-22T13:32:01.692Z,99258.56
2022-08-22T13:35:00.674Z,99261.34
2022-08-22T13:37:44.206Z,99257.41
2022-08-22T13:40:26.320Z,99259.91
2022-08-22T13:43:08.513Z,99264.13
2022-08-22T13:45:53.922Z,99258.63
2022-08-22T13:48:46.774Z,99261.88
2022-08-22T13:51:46.568Z,99265.44
2022-08-22T13:54:42.155Z,99258.88
2022-08-22T13:57:24.666Z,99255.91
2022-08-22T14:00:29.129Z,99262.81
2022-08-22T14:03:09.518Z,99258.50
2022-08-22T14:05:53.249Z,99262.66
2022-08-22T14:08:32.000Z,99258.22
2022-08-22T14:11:21.453Z,99259.47
2022-08-22T14:14:08.184Z,99252.22
2022-08-22T14:16:48.571Z,99254.44
2022-08-22T14:19:31.469Z,99245.25
2022-08-22T14:22:16.965Z,99246.91
2022-08-22T14:25:07.265Z,99248.28
2022-08-22T14:27:59.556Z,99254.81
2022-08-22T14:30:38.989Z,99248.25
2022-08-22T14:33:21.409Z,99249.75
2022-08-22T14:36:04.732Z,99239.91
2022-08-22T14:38:40.644Z,99245.00
2022-08-22T14:41:19.755Z,99242.31
2022-08-22T14:43:58.621Z,99246.84
2022-08-22T14:46:53.114Z,99251.38
2022-08-22T14:49:34.536Z,99249.16
2022-08-22T14:52:10.641Z,99238.97
2022-08-22T14:55:08.040Z,99248.88
2022-08-22T14:58:13.422Z,99238.84
2022-08-22T15:00:47.601Z,99245.84
2022-08-22T15:03:24.734Z,99248.72
2022-08-22T15:06:08.364Z,99248.94
2022-08-22T15:08:46.404Z,99251.25
2022-08-22T15:11:32.063Z,99258.41
2022-08-22T15:14:12.644Z,99254.75
2022-08-22T15:16:52.495Z,99255.78
2022-08-22T15:19:33.163Z,99258.47
2022-08-22T15:22:25.818Z,99257.22
2022-08-22T15:25:08.553Z,99254.09
2022-08-22T15:28:05.220Z,99257.13
2022-08-22T15:30:44.505Z,99254.69
2022-08-22T15:33:31.013Z,99248.72
2022-08-22T15:36:25.133Z,99245.91
2022-08-22T15:39:34.288Z,99253.72
2022-08-22T15:42:09.766Z,99254.09
2022-08-22T15:44:47.346Z,99250.38
2022-08-22T15:47:35.019Z,99241.25
2022-08-22T15:50:29.814Z,99237.53
2022-08-22T15:53:04.818Z,99236.09
2022-08-22T15:56:07.308Z,99245.63
2022-08-22T15:58:48.824Z,99246.50
2022-08-22T16:01:25.718Z,99241.88
2022-08-22T16:04:09.529Z,99240.31
2022-08-22T16:06:46.982Z,99238.88
2022-08-22T16:09:44.572Z,99231.00
2022-08-22T16:12:35.443Z,99231.00
2022-08-22T16:15:46.887Z,99227.91
2022-08-22T16:18:33.722Z,99230.94
2022-08-22T16:21:31.560Z,99241.16
2022-08-22T16:24:03.037Z,99238.16
2022-08-22T16:26:40.873Z,99235.06
2022-08-22T16:29:17.520Z,99232.38
2022-08-22T16:31:49.726Z,99239.38
2022-08-22T16:34:26.101Z,99238.69
2022-08-22T16:37:03.890Z,99237.06
2022-08-22T16:39:58.704Z,99231.00
2022-08-22T16:42:41.825Z,99231.88
2022-08-22T16:45:23.428Z,99235.69
2022-08-22T16:48:01.592Z,99241.66
2022-08-22T16:50:38.178Z,99241.38
2022-08-22T16:53:18.824Z,99242.63
2022-08-22T16:56:15.557Z,99250.50
2022-08-22T16:59:19.668Z,99237.59
2022-08-22T17:02:05.533Z,99245.63
2022-08-22T17:05:03.210Z,99247.63
2022-08-22T17:08:01.689Z,99246.19
2022-08-22T17:11:04.544Z,99246.06
2022-08-22T17:13:39.009Z,99255.41
2022-08-22T17:16:26.477Z,99244.50
2022-08-22T17:19:28.313Z,99259.22
2022-08-22T17:22:12.304Z,99254.41
2022-08-22T17:24:50.956Z,99264.44
2022-08-22T17:27:30.981Z,99253.94
2022-08-22T17:30:12.421Z,99258.69
2022-08-22T17:33:02.793Z,99258.25
2022-08-22T17:36:04.891Z,99266.66
2022-08-22T17:38:58.402Z,99264.19
2022-08-22T17:42:10.217Z,99267.44
2022-08-22T17:45:03.161Z,99257.78
2022-08-22T17:48:04.565Z,99267.63
2022-08-22T17:50:57.146Z,99263.13
2022-08-22T17:53:47.992Z,99259.22
2022-08-22T17:56:26.441Z,99262.91
2022-08-22T17:59:12.036Z,99260.31
2022-08-22T18:01:50.042Z,99265.28
2022-08-22T18:05:00.273Z,99267.19
2022-08-22T18:08:04.764Z,99271.09
2022-08-22T18:10:46.930Z,99265.53
2022-08-22T18:13:37.824Z,99264.34
2022-08-22T18:16:31.266Z,99268.84
2022-08-22T18:19:17.490Z,99269.06
2022-08-22T18:21:51.754Z,99284.69
2022-08-22T18:24:37.994Z,99267.00
2022-08-22T18:27:34.687Z,99281.59
2022-08-22T18:30:20.917Z,99282.66
2022-08-22T18:33:06.227Z,99283.94
2022-08-22T18:35:53.905Z,99278.81
2022-08-22T18:38:32.025Z,99283.34
2022-08-22T18:41:15.175Z,99287.91
2022-08-22T18:43:48.309Z,99283.34
2022-08-22T18:46:40.711Z,99289.50
2022-08-22T18:49:24.502Z,99290.53
2022-08-22T18:52:05.462Z,99285.19
2022-08-22T18:55:00.998Z,99292.81
2022-08-22T18:57:59.995Z,99288.94
2022-08-22T19:00:52.166Z,99289.16
2022-08-22T19:04:22.401Z,99291.44
2022-08-22T19:07:00.307Z,99295.13
2022-08-22T19:10:05.131Z,99291.19
2022-08-22T19:13:03.530Z,99294.88
2022-08-22T19:15:52.291Z,99291.63
2022-08-22T19:18:55.012Z,99290.59
2022-08-22T19:21:50.667Z,99296.94
2022-08-22T19:24:28.045Z,99299.38
2022-08-22T19:27:18.263Z,99303.69
2022-08-22T19:29:55.651Z,99301.88
2022-08-22T19:32:47.869Z,99294.66
2022-08-22T19:35:46.644Z,99299.94
2022-08-22T19:39:09.670Z,99290.66
2022-08-22T19:41:46.859Z,99291.34
2022-08-22T19:44:20.853Z,99282.34
2022-08-22T19:47:30.194Z,99285.50
2022-08-22T19:50:16.865Z,99285.22
2022-08-22T19:53:27.095Z,99292.19
2022-08-22T19:56:28.934Z,99295.03
2022-08-22T19:59:26.357Z,99282.69
2022-08-22T20:02:17.285Z,99284.28
2022-08-22T20:05:19.541Z,99287.69
2022-08-22T20:08:19.176Z,99294.75
2022-08-22T20:11:18.600Z,99287.84
2022-08-22T20:13:50.916Z,99289.56
2022-08-22T20:17:00.516Z,99279.66
2022-08-22T20:20:16.533Z,99282.19
2022-08-22T20:22:49.034Z,99283.81
2022-08-22T20:25:42.915Z,99278.78
2022-08-22T20:28:37.449Z,99282.34
2022-08-22T20:31:20.995Z,99281.88
2022-08-22T20:34:00.829Z,99281.31
2022-08-22T20:36:35.954Z,99285.63
2022-08-22T20:39:15.332Z,99275.13
2022-08-22T20:41:57.466Z,99273.28
2022-08-22T20:44:33.849Z,99275.13
2022-08-22T20:47:21.237Z,99269.63
2022-08-22T20:49:58.700Z,99266.53
2022-08-22T20:52:37.348Z,99266.88
2022-08-22T20:55:18.066Z,99263.38
2022-08-22T20:57:54.905Z,99269.78
2022-08-22T21:00:36.522Z,99262.56
2022-08-22T21:03:11.050Z,99270.22
2022-08-22T21:05:44.237Z,99262.81
2022-08-22T21:08:24.802Z,99262.59
2022-08-22T21:11:23.700Z,99258.50
2022-08-22T21:13:55.712Z,99255.75
2022-08-22T21:16:31.365Z,99252.13
2022-08-22T21:19:16.287Z,99253.88
2022-08-22T21:21:47.932Z,99258.28
2022-08-22T21:24:19.689Z,99244.97
2022-08-22T21:27:00.108Z,99246.78
2022-08-22T21:29:34.268Z,99252.19
2022-08-22T21:32:22.890Z,99252.97
2022-08-22T21:34:54.839Z,99253.19
2022-08-22T21:37:44.279Z,99252.56
2022-08-22T21:40:33.276Z,99254.78
2022-08-22T21:43:05.588Z,99249.81
2022-08-22T21:45:42.316Z,99249.56
2022-08-22T21:48:51.345Z,99252.91
2022-08-22T21:51:36.758Z,99252.41
2022-08-22T21:54:40.854Z,99259.22
2022-08-22T21:57:12.739Z,99253.97
2022-08-22T21:59:59.049Z,99253.66
2022-08-22T22:02:37.553Z,99255.41
2022-08-22T22:05:13.093Z,99257.50
2022-08-22T22:07:47.048Z,99251.28
2022-08-22T22:10:23.207Z,99247.78
2022-08-22T22:12:57.049Z,99251.59
2022-08-22T22:15:34.640Z,99247.44
2022-08-22T22:18:07.114Z,99251.09
2022-08-22T22:20:39.369Z,99253.09
2022-08-22T22:23:11.876Z,99252.47
2022-08-22T22:25:45.545Z,99251.78
2022-08-22T22:28:21.390Z,99244.81
2022-08-22T22:30:53.459Z,99243.16
2022-08-22T22:33:30.845Z,99239.53
2022-08-22T22:36:43.247Z,99240.50
2022-08-22T22:39:15.465Z,99229.47
2022-08-22T22:41:47.159Z,99229.66
2022-08-22T22:44:18.790Z,99227.44
2022-08-22T22:47:04.085Z,99236.06
2022-08-22T22:49:35.991Z,99232.72
2022-08-22T22:52:07.613Z,99232.50
2022-08-22T22:54:43.367Z,99227.34
2022-08-22T22:57:25.296Z,99225.28
2022-08-22T22:59:57.861Z,99232.22
2022-08-22T23:02:29.544Z,99220.47
2022-08-22T23:05:01.195Z,99221.25
2022-08-22T23:07:33.751Z,99216.38
2022-08-22T23:10:08.148Z,99213.91
2022-08-22T23:12:40.328Z,99222.97
2022-08-22T23:15:12.093Z,99222.84
2022-08-22T23:17:45.160Z,99221.56
2022-08-22T23:20:16.848Z,99223.41
2022-08-22T23:22:48.604Z,99221.88
2022-08-22T23:25:20.354Z,99222.25
2022-08-22T23:27:52.549Z,99220.31
2022-08-22T23:30:24.382Z,99216.75
2022-08-22T23:32:56.113Z,99212.94
2022-08-22T23:35:27.826Z,99212.38
2022-08-22T23:38:00.743Z,99203.28
2022-08-22T23:40:32.501Z,99203.06
2022-08-22T23:43:04.326Z,99204.25
2022-08-22T23:45:38.806Z,99206.13
2022-08-22T23:48:10.303Z,99214.16
2022-08-22T23:50:41.900Z,99211.25
2022-08-22T23:53:13.544Z,99209.31
2022-08-22T23:55:47.709Z,99218.81
2022-08-22T23:58:19.335Z,99216.84
